Terminal Aerodrome Forecast
Issued by NWS

Home | Current Version | Previous Version | Text Only | Print | Product List | Glossary Off
Versions: 1 2 3 4 5 6 7 8 9 10 11 12 13 14 15 16 17 18 19 20 21 22 23 24

000
FTUS43 KGRB 291720
TAFCWA
TAF
KCWA 291720Z 2918/3018 17004KT P6SM BKN008
     FM300100 VRB03KT P6SM SCT012
     FM300500 00000KT 3SM BR SCT002 BKN012
      TEMPO 3009/3013 3/4SM BR OVC002
     FM301500 21006KT P6SM BKN012=

USA.gov is the U.S. government's official web portal to all federal, state and local government web resources and services.